sensor_id;sensor_type;location;lat;lon;timestamp;pressure;altitude;pressure_sealevel;temperature;humidity
38191;BME280;25191;47.510;19.124;2023-05-09T00:00:06;101140.66;;;23.15;38.97
38191;BME280;25191;47.510;19.124;2023-05-09T00:20:18;101132.31;;;23.21;38.81
38191;BME280;25191;47.510;19.124;2023-05-09T00:40:20;101116.47;;;23.21;38.68
38191;BME280;25191;47.510;19.124;2023-05-09T01:00:29;101109.50;;;23.20;38.53
38191;BME280;25191;47.510;19.124;2023-05-09T01:20:43;101114.25;;;23.15;38.56
38191;BME280;25191;47.510;19.124;2023-05-09T01:40:49;101117.97;;;23.12;38.59
38191;BME280;25191;47.510;19.124;2023-05-09T02:00:54;101100.31;;;23.13;38.51
38191;BME280;25191;47.510;19.124;2023-05-09T02:20:54;101086.41;;;23.11;38.48
38191;BME280;25191;47.510;19.124;2023-05-09T02:40:55;101078.81;;;23.06;38.34
38191;BME280;25191;47.510;19.124;2023-05-09T03:00:57;101073.66;;;23.05;38.40
38191;BME280;25191;47.510;19.124;2023-05-09T03:20:58;101067.75;;;23.01;38.29
38191;BME280;25191;47.510;19.124;2023-05-09T03:40:59;101081.91;;;23.00;38.40
38191;BME280;25191;47.510;19.124;2023-05-09T04:01:06;101091.06;;;23.07;38.38
38191;BME280;25191;47.510;19.124;2023-05-09T04:21:08;101087.97;;;23.13;38.29
38191;BME280;25191;47.510;19.124;2023-05-09T04:41:08;101079.91;;;23.15;38.49
38191;BME280;25191;47.510;19.124;2023-05-09T05:01:09;101093.31;;;23.25;38.16
38191;BME280;25191;47.510;19.124;2023-05-09T05:21:09;101095.59;;;23.29;38.11
38191;BME280;25191;47.510;19.124;2023-05-09T05:41:09;101098.28;;;23.41;38.31
38191;BME280;25191;47.510;19.124;2023-05-09T06:01:10;101096.47;;;23.41;38.67
38191;BME280;25191;47.510;19.124;2023-05-09T06:21:11;101094.53;;;23.43;38.64
38191;BME280;25191;47.510;19.124;2023-05-09T06:41:11;101087.94;;;23.38;39.08
38191;BME280;25191;47.510;19.124;2023-05-09T07:01:12;101068.72;;;23.36;38.58
38191;BME280;25191;47.510;19.124;2023-05-09T07:21:12;101052.94;;;23.23;39.24
38191;BME280;25191;47.510;19.124;2023-05-09T07:41:12;101025.13;;;23.06;39.51
38191;BME280;25191;47.510;19.124;2023-05-09T08:01:13;101014.66;;;23.04;39.04
38191;BME280;25191;47.510;19.124;2023-05-09T08:21:13;100995.97;;;23.07;39.05
38191;BME280;25191;47.510;19.124;2023-05-09T08:41:25;100988.66;;;23.11;38.69
38191;BME280;25191;47.510;19.124;2023-05-09T09:01:27;100968.47;;;23.10;38.78
38191;BME280;25191;47.510;19.124;2023-05-09T09:21:30;100953.69;;;23.07;38.52
38191;BME280;25191;47.510;19.124;2023-05-09T09:41:36;100958.50;;;23.13;38.31
38191;BME280;25191;47.510;19.124;2023-05-09T10:22:04;100931.44;;;23.34;38.68
38191;BME280;25191;47.510;19.124;2023-05-09T10:42:06;100917.84;;;23.50;39.33
38191;BME280;25191;47.510;19.124;2023-05-09T11:02:16;100902.69;;;23.63;38.22
38191;BME280;25191;47.510;19.124;2023-05-09T11:22:23;100889.66;;;23.83;38.34
38191;BME280;25191;47.510;19.124;2023-05-09T11:42:29;100878.81;;;23.86;37.72
38191;BME280;25191;47.510;19.124;2023-05-09T12:02:30;100865.19;;;23.70;32.58
38191;BME280;25191;47.510;19.124;2023-05-09T12:22:35;100841.03;;;23.74;31.82
38191;BME280;25191;47.510;19.124;2023-05-09T12:42:37;100834.19;;;23.60;29.51
38191;BME280;25191;47.510;19.124;2023-05-09T13:02:39;100802.59;;;23.59;30.05
38191;BME280;25191;47.510;19.124;2023-05-09T13:22:41;100782.44;;;23.46;30.64
38191;BME280;25191;47.510;19.124;2023-05-09T13:42:43;100769.47;;;23.43;30.62
38191;BME280;25191;47.510;19.124;2023-05-09T14:02:43;100732.38;;;23.33;31.04
38191;BME280;25191;47.510;19.124;2023-05-09T14:22:44;100721.56;;;23.69;33.09
38191;BME280;25191;47.510;19.124;2023-05-09T14:42:47;100700.03;;;23.74;33.75
38191;BME280;25191;47.510;19.124;2023-05-09T15:02:48;100691.53;;;23.91;35.13
38191;BME280;25191;47.510;19.124;2023-05-09T15:22:49;100679.31;;;24.52;34.84
38191;BME280;25191;47.510;19.124;2023-05-09T15:42:49;100663.34;;;24.33;34.84
38191;BME280;25191;47.510;19.124;2023-05-09T16:02:59;100639.91;;;24.59;34.82
38191;BME280;25191;47.510;19.124;2023-05-09T16:22:59;100644.88;;;24.52;35.78
38191;BME280;25191;47.510;19.124;2023-05-09T16:43:00;100632.44;;;24.33;36.13
38191;BME280;25191;47.510;19.124;2023-05-09T17:03:00;100614.88;;;24.32;37.10
38191;BME280;25191;47.510;19.124;2023-05-09T17:23:01;100622.19;;;24.09;35.88
38191;BME280;25191;47.510;19.124;2023-05-09T17:43:02;100615.34;;;24.06;37.11
38191;BME280;25191;47.510;19.124;2023-05-09T18:03:03;100618.53;;;24.00;38.60
38191;BME280;25191;47.510;19.124;2023-05-09T18:23:04;100619.88;;;23.94;38.82
38191;BME280;25191;47.510;19.124;2023-05-09T18:43:10;100646.97;;;23.87;39.33
38191;BME280;25191;47.510;19.124;2023-05-09T19:03:11;100659.47;;;23.85;39.41
38191;BME280;25191;47.510;19.124;2023-05-09T19:23:11;100649.41;;;23.78;39.54
38191;BME280;25191;47.510;19.124;2023-05-09T19:43:12;100640.69;;;23.66;39.13
38191;BME280;25191;47.510;19.124;2023-05-09T20:03:13;100636.78;;;23.61;39.23
38191;BME280;25191;47.510;19.124;2023-05-09T20:23:13;100639.81;;;23.56;39.17
38191;BME280;25191;47.510;19.124;2023-05-09T20:43:14;100618.91;;;23.53;39.05
38191;BME280;25191;47.510;19.124;2023-05-09T21:03:15;100619.28;;;23.48;39.08
38191;BME280;25191;47.510;19.124;2023-05-09T21:23:25;100601.44;;;23.41;39.02
38191;BME280;25191;47.510;19.124;2023-05-09T21:43:27;100597.50;;;23.35;39.27
38191;BME280;25191;47.510;19.124;2023-05-09T22:03:28;100594.53;;;23.28;39.59
38191;BME280;25191;47.510;19.124;2023-05-09T22:23:29;100593.50;;;23.20;39.90
38191;BME280;25191;47.510;19.124;2023-05-09T22:43:30;100584.97;;;23.16;39.85
38191;BME280;25191;47.510;19.124;2023-05-09T23:03:31;100587.00;;;23.12;39.91
38191;BME280;25191;47.510;19.124;2023-05-09T23:23:31;100579.47;;;23.08;40.05
38191;BME280;25191;47.510;19.124;2023-05-09T23:43:32;100574.44;;;23.05;40.57
